Time;durP1;ratioP1;P1;durP2;ratioP2;P2;SDS_P1;SDS_P2;PMS_P1;PMS_P2;Temp;Humidity;BMP_temperature;BMP_pressure;BME280_temperature;BME280_humidity;BME280_pressure;Samples;Min_cycle;Max_cycle;Signal;HPM_P1;HPM_P2
2021/12/02 00:00:47;;;;;;;3.03;1.40;;;;;;;3.07;87.74;92342.22;4898095;29;20051;-68
2021/12/02 00:03:14;;;;;;;2.17;1.00;;;;;;;3.00;87.57;92335.72;4897200;29;21820;-68
2021/12/02 00:05:42;;;;;;;3.15;1.40;;;;;;;3.06;87.75;92335.25;4898437;29;20052;-68
2021/12/02 00:08:09;;;;;;;2.60;1.10;;;;;;;3.05;87.92;92341.88;4897536;29;20067;-68
2021/12/02 00:10:37;;;;;;;2.63;0.73;;;;;;;2.89;87.62;92335.06;4898701;29;20052;-68
2021/12/02 00:13:03;;;;;;;1.92;0.80;;;;;;;2.89;88.47;92345.91;4914105;29;20511;-68
2021/12/02 00:15:44;;;;;;;2.97;1.30;;;;;;;2.83;87.78;92346.78;4917365;29;20052;-68
2021/12/02 00:23:33;;;;;;;1.80;0.87;;;;;;;2.62;88.11;92345.06;4916133;29;20052;-68
2021/12/02 00:26:04;;;;;;;2.20;0.70;;;;;;;2.46;89.41;92342.94;4916649;29;20078;-68
2021/12/02 00:28:31;;;;;;;1.60;0.68;;;;;;;2.59;88.81;92338.50;4917261;29;20056;-68
2021/12/02 00:31:00;;;;;;;2.42;0.80;;;;;;;2.68;88.36;92344.22;4916364;29;20047;-68
2021/12/02 00:33:30;;;;;;;1.90;0.90;;;;;;;2.67;88.02;92345.38;4916547;29;20048;-68
2021/12/02 00:35:57;;;;;;;2.40;1.40;;;;;;;2.59;88.69;92352.06;4916341;29;20048;-68
2021/12/02 00:38:25;;;;;;;2.97;1.60;;;;;;;2.63;88.84;92344.66;4916388;29;20050;-68
2021/12/02 00:40:52;;;;;;;2.20;1.20;;;;;;;2.64;88.46;92345.44;4916385;29;20060;-68
2021/12/02 00:43:19;;;;;;;2.00;0.95;;;;;;;2.77;88.07;92347.22;4916290;29;20040;-68
2021/12/02 00:45:47;;;;;;;1.80;0.85;;;;;;;2.71;87.25;92346.13;4911130;29;20056;-68
2021/12/02 00:48:14;;;;;;;1.83;0.80;;;;;;;2.77;87.82;92349.16;4896594;29;21831;-68
2021/12/02 00:50:45;;;;;;;1.75;0.77;;;;;;;2.90;87.27;92352.13;4897888;29;20049;-68
2021/12/02 00:53:13;;;;;;;2.55;0.95;;;;;;;2.72;87.18;92349.63;4896885;29;20048;-68
2021/12/02 00:55:41;;;;;;;2.38;0.88;;;;;;;2.74;87.60;92358.88;4897552;29;20040;-68
2021/12/02 00:58:11;;;;;;;1.90;0.90;;;;;;;2.85;87.44;92349.84;4897061;29;20129;-68
2021/12/02 01:00:39;;;;;;;2.23;1.10;;;;;;;2.82;87.99;92356.84;4896480;29;20041;-68
2021/12/02 01:03:06;;;;;;;2.10;1.10;;;;;;;2.96;87.27;92366.75;4911301;29;20092;-67
2021/12/02 01:05:33;;;;;;;2.67;1.50;;;;;;;2.91;87.68;92359.06;4897674;29;20044;-68
2021/12/02 01:08:01;;;;;;;3.80;2.30;;;;;;;2.81;87.97;92355.28;4896587;29;20045;-68
2021/12/02 01:10:28;;;;;;;2.40;1.40;;;;;;;2.92;87.65;92363.31;4897107;29;20048;-68
2021/12/02 01:12:56;;;;;;;3.00;1.80;;;;;;;2.77;87.89;92360.00;4896638;29;20071;-68
2021/12/02 01:15:25;;;;;;;2.20;1.10;;;;;;;2.75;88.03;92367.75;4896905;29;20409;-68
2021/12/02 01:17:53;;;;;;;1.92;0.93;;;;;;;2.71;88.10;92362.38;4896808;29;20126;-68
2021/12/02 01:20:20;;;;;;;2.13;0.65;;;;;;;2.79;87.79;92363.81;4895656;29;20045;-68
2021/12/02 01:22:48;;;;;;;2.40;1.33;;;;;;;2.94;88.05;92358.25;4896994;29;20490;-69
2021/12/02 01:25:18;;;;;;;4.30;2.20;;;;;;;2.79;88.64;92361.13;4895961;29;20748;-69
2021/12/02 01:27:49;;;;;;;2.95;1.63;;;;;;;2.68;88.98;92359.72;4897166;29;20044;-69
2021/12/02 01:30:16;;;;;;;3.67;1.38;;;;;;;2.52;89.87;92360.28;4895837;29;20758;-69
2021/12/02 01:32:45;;;;;;;1.80;0.80;;;;;;;2.65;89.63;92357.81;4896798;29;20048;-69
2021/12/02 01:35:13;;;;;;;2.22;0.85;;;;;;;2.87;88.36;92358.34;4896127;29;20075;-69
2021/12/02 01:37:40;;;;;;;3.40;1.10;;;;;;;2.93;88.50;92345.88;4896753;29;20051;-69
2021/12/02 01:40:07;;;;;;;2.83;0.90;;;;;;;2.73;87.95;92346.47;4896105;29;20047;-67
2021/12/02 01:42:39;;;;;;;3.00;1.15;;;;;;;2.65;88.46;92352.38;4896855;29;20041;-70
2021/12/02 01:45:06;;;;;;;10.27;7.15;;;;;;;2.67;89.10;92356.22;4896594;29;20055;-69
2021/12/02 01:47:42;;;;;;;2.42;1.30;;;;;;;2.62;89.33;92362.09;4915657;29;20056;-69
2021/12/02 01:50:14;;;;;;;2.00;0.90;;;;;;;2.64;89.47;92359.75;4915059;29;20424;-69
2021/12/02 01:52:43;;;;;;;3.80;2.00;;;;;;;2.51;90.19;92356.00;4915724;29;20049;-69
2021/12/02 01:55:14;;;;;;;4.00;2.20;;;;;;;2.43;91.21;92355.31;4914671;29;20040;-69
2021/12/02 01:57:47;;;;;;;2.38;1.20;;;;;;;2.51;90.83;92353.31;4915622;29;20055;-69
2021/12/02 02:00:19;;;;;;;2.10;0.80;;;;;;;2.56;91.03;92361.75;4914723;29;20052;-69
2021/12/02 02:02:47;;;;;;;2.10;0.90;;;;;;;2.61;90.13;92355.13;4915412;29;20046;-69
2021/12/02 02:05:16;;;;;;;2.38;0.80;;;;;;;2.56;89.77;92353.63;4914133;29;20426;-69
2021/12/02 02:08:00;;;;;;;1.80;0.80;;;;;;;2.38;89.79;92356.53;4929124;29;20052;-69
2021/12/02 02:10:31;;;;;;;3.75;0.85;;;;;;;2.52;89.94;92361.03;4913957;29;21700;-69
2021/12/02 02:13:00;;;;;;;2.00;0.90;;;;;;;2.64;88.71;92362.47;4914642;29;20052;-69
2021/12/02 02:15:28;;;;;;;2.53;0.80;;;;;;;2.68;88.81;92357.78;4914795;29;20052;-69
2021/12/02 02:20:58;;;;;;;1.90;0.82;;;;;;;2.66;88.02;92356.66;4914833;29;20054;-69
2021/12/02 02:23:28;;;;;;;2.20;0.88;;;;;;;2.75;88.23;92354.22;4913303;29;20749;-69
2021/12/02 02:25:55;;;;;;;2.40;1.02;;;;;;;2.73;87.96;92360.03;4912996;29;20055;-69
2021/12/02 02:28:22;;;;;;;2.00;0.90;;;;;;;2.53;87.91;92357.13;4914406;29;20050;-69
2021/12/02 02:30:49;;;;;;;2.35;0.80;;;;;;;2.58;87.99;92367.53;4914439;29;20044;-66
2021/12/02 02:33:18;;;;;;;2.10;1.00;;;;;;;2.43;87.88;92363.44;4913120;29;20156;-69
2021/12/02 02:35:46;;;;;;;3.35;1.45;;;;;;;2.45;87.80;92369.22;4913604;29;20122;-69
2021/12/02 02:38:16;;;;;;;2.55;1.10;;;;;;;2.44;88.00;92364.22;4913431;29;20056;-69
2021/12/02 02:40:46;;;;;;;2.70;1.30;;;;;;;2.39;87.37;92374.31;4914853;29;20103;-69
2021/12/02 02:43:22;;;;;;;2.00;0.77;;;;;;;2.40;87.64;92375.06;4914044;29;20048;-69
2021/12/02 02:45:49;;;;;;;2.20;1.08;;;;;;;2.36;87.67;92371.63;4908336;29;20409;-67
2021/12/02 02:48:16;;;;;;;2.60;1.20;;;;;;;2.27;88.13;92372.09;4895366;29;20056;-69
2021/12/02 02:50:42;;;;;;;2.45;1.30;;;;;;;2.25;88.52;92370.94;4895837;29;20072;-69
2021/12/02 02:53:18;;;;;;;2.30;1.00;;;;;;;2.31;87.67;92367.41;4895400;29;20417;-69
2021/12/02 02:55:55;;;;;;;2.15;1.00;;;;;;;2.23;87.85;92368.63;4895578;29;20511;-69
2021/12/02 03:01:09;;;;;;;2.70;0.80;;;;;;;2.18;87.76;92375.25;4895168;29;20036;-69
2021/12/02 03:03:48;;;;;;;2.80;1.45;;;;;;;2.00;89.18;92366.53;4895504;29;20044;-69
2021/12/02 03:09:03;;;;;;;1.90;0.80;;;;;;;2.03;88.53;92363.00;4894651;29;20075;-69
2021/12/02 03:11:39;;;;;;;2.47;1.20;;;;;;;1.99;89.01;92371.19;4895327;29;20045;-69
2021/12/02 03:14:11;;;;;;;2.20;1.10;;;;;;;2.05;89.06;92376.91;4894796;29;20048;-69
2021/12/02 03:16:45;;;;;;;3.05;1.00;;;;;;;1.93;89.41;92372.78;4895566;29;20048;-69
2021/12/02 03:19:14;;;;;;;2.47;1.10;;;;;;;1.86;89.31;92375.53;4894858;29;20070;-68
2021/12/02 03:21:41;;;;;;;3.80;0.95;;;;;;;1.81;88.54;92365.13;4895527;29;20041;-69
2021/12/02 03:24:08;;;;;;;21.55;10.70;;;;;;;1.91;89.02;92367.00;4894961;29;20048;-69
2021/12/02 03:26:35;;;;;;;5.57;1.77;;;;;;;1.85;88.10;92371.28;4895187;29;20063;-69
2021/12/02 03:29:04;;;;;;;2.20;1.17;;;;;;;1.72;88.06;92370.97;4895101;29;20056;-69
2021/12/02 03:31:31;;;;;;;2.87;1.00;;;;;;;1.77;87.88;92375.19;4894949;29;20059;-69
2021/12/02 03:33:59;;;;;;;2.75;1.10;;;;;;;1.74;88.45;92371.34;4895297;29;20080;-69
2021/12/02 03:36:28;;;;;;;2.13;1.10;;;;;;;1.67;88.63;92366.00;4898731;29;20055;-69
2021/12/02 03:38:54;;;;;;;2.78;1.27;;;;;;;1.72;88.51;92357.47;4898211;29;20047;-69
2021/12/02 03:41:22;;;;;;;2.97;1.08;;;;;;;1.68;88.73;92364.06;4898748;29;20390;-69
2021/12/02 03:43:50;;;;;;;2.90;1.20;;;;;;;1.57;89.26;92367.63;4898559;29;20481;-69
2021/12/02 03:46:21;;;;;;;3.00;1.35;;;;;;;1.53;89.62;92363.38;4907804;29;20052;-69
2021/12/02 03:48:49;;;;;;;2.17;1.10;;;;;;;1.51;90.02;92354.91;4917883;29;20040;-69
2021/12/02 03:51:17;;;;;;;2.38;1.10;;;;;;;1.48;90.42;92350.28;4916579;29;20802;-69
2021/12/02 03:53:45;;;;;;;5.50;2.20;;;;;;;1.54;90.42;92349.47;4917647;29;20048;-69
2021/12/02 03:56:12;;;;;;;2.97;1.27;;;;;;;1.54;90.46;92341.34;4916954;29;20044;-69
2021/12/02 03:58:41;;;;;;;2.47;1.05;;;;;;;1.56;90.57;92346.38;4931707;29;20040;-69
2021/12/02 04:01:09;;;;;;;2.92;1.50;;;;;;;1.46;91.19;92337.16;4916913;29;20044;-70
2021/12/02 04:03:36;;;;;;;6.40;2.83;;;;;;;1.49;91.35;92344.50;4917067;29;20052;-69
2021/12/02 04:06:04;;;;;;;4.45;2.95;;;;;;;1.57;91.43;92347.91;4917084;29;20052;-69
2021/12/02 04:08:44;;;;;;;6.17;3.40;;;;;;;1.64;91.19;92349.81;4916746;29;20040;-69
2021/12/02 04:11:28;;;;;;;5.60;1.75;;;;;;;1.68;90.97;92337.03;4916894;29;20040;-69
2021/12/02 04:14:16;;;;;;;3.97;1.60;;;;;;;1.66;90.48;92340.13;4915616;29;20045;-69
2021/12/02 04:16:52;;;;;;;3.42;1.75;;;;;;;1.68;89.52;92334.31;4917376;29;20075;-69
2021/12/02 04:19:21;;;;;;;2.53;1.27;;;;;;;1.60;90.01;92339.78;4915138;29;20911;-69
2021/12/02 04:21:49;;;;;;;4.23;1.40;;;;;;;1.55;90.16;92334.00;4917247;29;20050;-69
2021/12/02 04:24:16;;;;;;;2.20;1.08;;;;;;;1.64;89.53;92330.88;4916147;29;21617;-68
2021/12/02 04:26:43;;;;;;;3.05;1.10;;;;;;;1.59;89.11;92330.13;4916550;29;20129;-69
2021/12/02 04:29:11;;;;;;;2.22;1.00;;;;;;;1.57;89.37;92332.47;4915867;29;20054;-69
2021/12/02 04:31:41;;;;;;;3.00;0.95;;;;;;;1.59;89.38;92326.66;4916636;29;20401;-69
2021/12/02 04:34:08;;;;;;;2.70;1.10;;;;;;;1.51;89.53;92320.53;4916430;29;20048;-69
2021/12/02 04:36:35;;;;;;;2.83;1.20;;;;;;;1.52;89.69;92324.78;4916598;29;20055;-69
2021/12/02 04:39:02;;;;;;;2.90;1.10;;;;;;;1.53;89.55;92326.31;4916130;29;20048;-69
2021/12/02 04:41:28;;;;;;;2.38;0.93;;;;;;;1.56;89.29;92330.16;4915164;29;20048;-68
2021/12/02 04:43:55;;;;;;;3.63;1.30;;;;;;;1.55;88.77;92332.09;4916153;29;20063;-68
2021/12/02 04:46:22;;;;;;;2.43;1.10;;;;;;;1.71;88.20;92328.09;4905867;29;20052;-68
2021/12/02 04:48:49;;;;;;;2.53;1.10;;;;;;;1.78;87.90;92330.75;4911785;29;20127;-67
2021/12/02 04:51:16;;;;;;;4.35;1.17;;;;;;;1.78;87.99;92330.75;4897871;29;20051;-68
2021/12/02 04:53:43;;;;;;;2.45;1.20;;;;;;;1.76;87.61;92336.56;4897783;29;20048;-68
2021/12/02 04:56:09;;;;;;;2.63;1.20;;;;;;;1.67;88.03;92332.78;4896984;29;20051;-68
2021/12/02 04:58:36;;;;;;;3.60;1.20;;;;;;;1.66;88.59;92328.53;4897422;29;20052;-67
2021/12/02 05:01:06;;;;;;;3.45;1.20;;;;;;;1.57;88.40;92328.97;4897043;29;20070;-68
2021/12/02 05:03:34;;;;;;;3.35;1.10;;;;;;;1.47;89.02;92327.13;4897157;29;20052;-67
2021/12/02 05:06:00;;;;;;;3.00;1.23;;;;;;;1.57;88.63;92332.47;4896970;29;20053;-66
2021/12/02 05:08:27;;;;;;;4.70;1.40;;;;;;;1.50;89.03;92326.34;4896705;29;20045;-66
2021/12/02 05:10:54;;;;;;;3.50;1.23;;;;;;;1.46;88.65;92326.34;4896734;29;20482;-66
2021/12/02 05:13:21;;;;;;;3.13;1.25;;;;;;;1.37;89.15;92329.50;4897062;29;20055;-66
2021/12/02 05:15:48;;;;;;;4.00;1.88;;;;;;;1.38;89.71;92331.03;4897002;29;20041;-67
2021/12/02 05:18:15;;;;;;;4.40;0.98;;;;;;;1.36;89.57;92330.66;4896491;29;20457;-67
2021/12/02 05:20:42;;;;;;;3.45;1.20;;;;;;;1.48;89.34;92334.84;4896806;29;20070;-67
2021/12/02 05:23:09;;;;;;;2.13;1.00;;;;;;;1.33;88.91;92322.59;4896795;29;20044;-67
2021/12/02 05:25:36;;;;;;;3.70;1.30;;;;;;;1.40;89.58;92331.41;4896709;29;20040;-67
2021/12/02 05:28:03;;;;;;;3.17;0.90;;;;;;;1.36;88.85;92327.19;4896338;29;20051;-67
2021/12/02 05:30:29;;;;;;;3.33;1.50;;;;;;;1.31;89.48;92323.00;4896627;29;20067;-67
2021/12/02 05:32:56;;;;;;;2.47;1.23;;;;;;;1.27;89.71;92324.94;4896332;29;20063;-66
2021/12/02 05:35:23;;;;;;;4.30;1.50;;;;;;;1.30;89.93;92328.78;4896626;29;20044;-67
2021/12/02 05:37:50;;;;;;;2.55;1.00;;;;;;;1.22;90.28;92330.75;4896143;29;20040;-66
2021/12/02 05:40:16;;;;;;;5.78;1.90;;;;;;;1.30;89.77;92323.38;4896702;29;20059;-67
2021/12/02 05:42:43;;;;;;;6.90;3.78;;;;;;;1.38;90.04;92322.16;4895067;29;20055;-67
2021/12/02 05:45:10;;;;;;;8.90;3.30;;;;;;;1.42;90.01;92327.56;4896721;29;20051;-67
2021/12/02 05:47:37;;;;;;;6.90;2.10;;;;;;;1.43;89.34;92329.88;4915222;29;20047;-67
2021/12/02 05:50:04;;;;;;;3.10;1.40;;;;;;;1.26;89.41;92334.19;4915050;29;20056;-68
2021/12/02 05:52:31;;;;;;;3.90;2.00;;;;;;;1.30;90.23;92334.19;4915088;29;20086;-67
2021/12/02 05:54:58;;;;;;;11.32;3.60;;;;;;;1.41;90.07;92334.91;4914596;29;20048;-67
2021/12/02 05:57:25;;;;;;;18.13;6.93;;;;;;;1.48;89.78;92331.38;4912894;29;20493;-68
2021/12/02 05:59:52;;;;;;;26.77;11.20;;;;;;;1.51;89.78;92331.34;4913325;29;20048;-67
2021/12/02 06:02:19;;;;;;;20.52;8.27;;;;;;;1.57;89.84;92328.97;4915081;29;20052;-67
2021/12/02 06:04:50;;;;;;;15.43;7.30;;;;;;;1.61;89.55;92329.75;4915002;29;20048;-68
2021/12/02 06:07:18;;;;;;;13.23;5.90;;;;;;;1.58;89.57;92328.59;4914104;29;20285;-67
2021/12/02 06:09:46;;;;;;;4.80;2.10;;;;;;;1.57;89.61;92320.88;4914758;29;20086;-67
2021/12/02 06:12:13;;;;;;;6.43;2.77;;;;;;;1.66;89.36;92329.31;4914738;29;20058;-67
2021/12/02 06:14:40;;;;;;;12.02;4.30;;;;;;;1.76;89.28;92327.69;4913136;29;20043;-68
2021/12/02 06:17:07;;;;;;;17.83;6.28;;;;;;;1.66;88.96;92325.84;4914404;29;20051;-67
2021/12/02 06:19:33;;;;;;;7.60;2.95;;;;;;;1.69;88.46;92325.81;4914638;29;20557;-67
2021/12/02 06:22:00;;;;;;;9.82;4.07;;;;;;;1.70;88.86;92321.16;4914290;29;20040;-68
2021/12/02 06:24:30;;;;;;;9.73;4.60;;;;;;;1.63;88.88;92322.00;4914565;29;20040;-67
2021/12/02 06:26:57;;;;;;;12.77;5.28;;;;;;;1.63;88.95;92318.50;4912937;29;20537;-67
2021/12/02 06:29:24;;;;;;;9.45;4.80;;;;;;;1.65;89.26;92319.66;4914237;29;20050;-67
2021/12/02 06:31:51;;;;;;;8.07;3.42;;;;;;;1.52;89.66;92318.59;4914203;29;20074;-67
2021/12/02 06:34:18;;;;;;;7.70;2.60;;;;;;;1.60;89.69;92318.13;4914595;29;20157;-68
2021/12/02 06:36:45;;;;;;;6.43;2.80;;;;;;;1.56;89.68;92324.75;4914322;29;20062;-68
2021/12/02 06:39:11;;;;;;;5.63;2.88;;;;;;;1.55;90.04;92328.59;4912649;29;20043;-67
2021/12/02 06:41:38;;;;;;;5.55;3.00;;;;;;;1.51;89.63;92314.34;4914184;29;20071;-67
2021/12/02 06:44:05;;;;;;;9.93;4.25;;;;;;;1.53;89.88;92325.53;4913965;29;20052;-68
2021/12/02 06:46:32;;;;;;;17.58;6.85;;;;;;;1.57;89.51;92327.06;4902782;29;20041;-67
2021/12/02 06:48:59;;;;;;;20.67;7.37;;;;;;;1.55;89.63;92326.69;4895049;29;20119;-67
2021/12/02 06:51:27;;;;;;;16.90;6.90;;;;;;;1.64;89.91;92322.78;4895042;29;20049;-66
2021/12/02 06:53:54;;;;;;;13.50;5.35;;;;;;;1.72;89.36;92321.53;4893932;29;20053;-67
2021/12/02 06:56:41;;;;;;;15.80;7.70;;;;;;;1.70;89.47;92319.22;4895075;29;20413;-67
2021/12/02 06:59:07;;;;;;;14.63;5.97;;;;;;;1.70;89.17;92323.88;4894874;29;20119;-67
2021/12/02 07:01:35;;;;;;;11.93;5.50;;;;;;;1.64;89.16;92330.88;4893976;29;20056;-67
2021/12/02 07:04:02;;;;;;;7.95;4.25;;;;;;;1.67;89.34;92322.75;4894987;29;20059;-67
2021/12/02 07:06:29;;;;;;;8.55;3.97;;;;;;;1.60;89.39;92326.25;4895028;29;20052;-68
2021/12/02 07:08:55;;;;;;;8.70;4.00;;;;;;;1.71;89.63;92326.19;4894331;29;20055;-67
2021/12/02 07:11:22;;;;;;;6.45;3.60;;;;;;;1.77;89.23;92326.50;4895282;29;20091;-67
2021/12/02 07:13:51;;;;;;;9.17;4.80;;;;;;;1.76;88.84;92323.03;4894809;29;20052;-64
2021/12/02 07:16:20;;;;;;;6.95;3.55;;;;;;;1.68;89.22;92321.56;4909622;29;20044;-67
2021/12/02 07:18:53;;;;;;;9.52;3.15;;;;;;;1.79;88.67;92324.19;4894904;29;20627;-67
2021/12/02 07:21:20;;;;;;;8.32;3.35;;;;;;;1.70;88.42;92329.28;4893285;29;20704;-67
2021/12/02 07:23:47;;;;;;;5.78;3.20;;;;;;;1.66;88.68;92337.41;4895042;29;20512;-68
2021/12/02 07:26:14;;;;;;;6.40;3.00;;;;;;;1.53;89.26;92325.53;4894895;29;20494;-67
2021/12/02 07:28:41;;;;;;;8.02;3.42;;;;;;;1.47;89.47;92335.22;4894942;29;20040;-67
2021/12/02 07:31:08;;;;;;;6.07;3.20;;;;;;;1.50;88.78;92332.50;4894607;29;20052;-67
2021/12/02 07:33:38;;;;;;;10.23;4.38;;;;;;;1.42;89.70;92333.72;4894930;29;20055;-68
2021/12/02 07:36:05;;;;;;;8.35;4.57;;;;;;;1.54;89.57;92327.84;4894754;29;20053;-67
2021/12/02 07:38:32;;;;;;;10.27;5.20;;;;;;;1.42;89.14;92343.78;4894415;29;20049;-67
2021/12/02 07:41:03;;;;;;;15.25;8.93;;;;;;;1.51;89.12;92342.16;4894595;29;20057;-68
2021/12/02 07:43:32;;;;;;;21.67;9.68;;;;;;;1.63;89.50;92345.56;4894786;29;20052;-67
2021/12/02 07:46:00;;;;;;;17.27;7.75;;;;;;;1.85;88.80;92341.53;4901766;29;20059;-66
2021/12/02 07:48:28;;;;;;;10.48;5.22;;;;;;;1.95;88.12;92346.09;4913781;29;20077;-66
2021/12/02 07:50:56;;;;;;;6.30;3.20;;;;;;;1.85;88.23;92349.66;4913326;29;20056;-66
2021/12/02 07:53:26;;;;;;;8.98;3.17;;;;;;;1.88;88.28;92348.84;4912570;29;20052;-66
2021/12/02 07:55:55;;;;;;;9.30;2.80;;;;;;;2.04;88.14;92352.97;4912913;29;20059;-66
2021/12/02 07:58:24;;;;;;;8.90;3.67;;;;;;;1.86;87.99;92347.72;4913543;29;20047;-67
2021/12/02 08:00:51;;;;;;;16.25;4.72;;;;;;;2.11;87.63;92344.78;4912823;29;20056;-66
2021/12/02 08:03:19;;;;;;;13.40;6.23;;;;;;;2.16;86.77;92350.53;4913603;29;20082;-66
2021/12/02 08:05:47;;;;;;;22.65;8.48;;;;;;;2.19;87.76;92357.88;4913395;29;20052;-67
2021/12/02 08:08:14;;;;;;;19.55;7.00;;;;;;;2.14;87.86;92355.59;4904068;29;20048;-66
2021/12/02 08:10:40;;;;;;;17.98;7.45;;;;;;;2.18;87.68;92364.44;4903762;29;20055;-66
2021/12/02 08:13:07;;;;;;;10.65;4.60;;;;;;;2.21;87.32;92362.84;4907380;29;20050;-66
2021/12/02 08:15:34;;;;;;;9.43;4.00;;;;;;;2.30;87.27;92354.28;4897077;29;20052;-66
2021/12/02 08:18:01;;;;;;;9.30;3.20;;;;;;;2.38;86.59;92358.47;4903952;29;20050;-67
2021/12/02 08:20:29;;;;;;;7.78;3.10;;;;;;;2.28;87.36;92362.03;4898805;29;20048;-67
2021/12/02 08:22:56;;;;;;;8.55;2.55;;;;;;;2.15;87.26;92351.72;4897473;29;20075;-66
2021/12/02 08:25:26;;;;;;;6.65;3.10;;;;;;;2.21;86.94;92360.16;4898177;29;20047;-66
2021/12/02 08:27:54;;;;;;;7.73;3.67;;;;;;;1.92;88.29;92349.59;4897365;29;20401;-66
2021/12/02 08:30:25;;;;;;;6.97;2.80;;;;;;;1.96;88.41;92353.03;4898068;29;20041;-66
2021/12/02 08:32:53;;;;;;;6.32;2.97;;;;;;;1.69;88.80;92352.06;4897241;29;20053;-66
2021/12/02 08:35:20;;;;;;;5.95;2.85;;;;;;;1.60;89.51;92353.28;4897665;29;20080;-67
2021/12/02 08:37:51;;;;;;;7.63;3.30;;;;;;;1.69;89.93;92354.78;4897379;29;20045;-67
2021/12/02 08:40:28;;;;;;;8.37;2.83;;;;;;;1.55;90.03;92361.84;4897142;29;20099;-66
2021/12/02 08:42:55;;;;;;;5.65;2.67;;;;;;;1.65;89.97;92364.84;4896990;29;20066;-66
2021/12/02 08:45:22;;;;;;;6.88;2.38;;;;;;;1.63;90.47;92364.47;4899975;29;20040;-67
2021/12/02 08:47:48;;;;;;;5.40;2.25;;;;;;;1.80;89.67;92360.88;4916469;29;20051;-67
2021/12/02 08:50:19;;;;;;;6.25;2.20;;;;;;;2.12;87.72;92370.69;4914380;29;20780;-67
2021/12/02 08:52:48;;;;;;;9.07;3.30;;;;;;;2.05;87.90;92368.03;4916370;29;20405;-67
2021/12/02 08:55:16;;;;;;;14.68;5.72;;;;;;;2.02;88.11;92366.91;4915565;29;21773;-67
2021/12/02 08:57:50;;;;;;;13.52;4.57;;;;;;;1.93;88.55;92367.38;4930539;29;20036;-67
2021/12/02 09:00:20;;;;;;;5.07;2.22;;;;;;;1.85;89.12;92371.28;4915669;29;20410;-67
2021/12/02 09:02:47;;;;;;;4.68;1.90;;;;;;;2.06;88.53;92369.59;4916083;29;20044;-67
2021/12/02 09:05:15;;;;;;;5.07;1.70;;;;;;;1.95;88.19;92367.72;4915632;29;20433;-68
2021/12/02 09:07:42;;;;;;;5.40;2.00;;;;;;;1.84;88.33;92368.97;4915587;29;20052;-68
2021/12/02 09:10:12;;;;;;;4.63;2.80;;;;;;;1.80;89.08;92366.28;4915880;29;20509;-67
2021/12/02 09:12:40;;;;;;;4.68;1.60;;;;;;;1.93;87.89;92369.28;4916008;29;20055;-67
2021/12/02 09:15:08;;;;;;;4.07;1.77;;;;;;;1.92;88.31;92373.16;4915720;29;20552;-67
2021/12/02 09:17:36;;;;;;;4.53;1.50;;;;;;;1.78;88.76;92374.03;4915753;29;20065;-67
2021/12/02 09:20:05;;;;;;;4.75;1.55;;;;;;;1.86;89.12;92375.53;4915627;29;20048;-67
2021/12/02 09:22:31;;;;;;;5.43;1.98;;;;;;;1.99;89.27;92376.59;4916002;29;20405;-68
2021/12/02 09:25:03;;;;;;;6.78;1.70;;;;;;;2.18;88.36;92377.22;4915314;29;20552;-67
2021/12/02 09:27:29;;;;;;;4.28;1.50;;;;;;;2.34;87.20;92374.72;4915934;29;20050;-67
2021/12/02 09:29:56;;;;;;;3.90;1.70;;;;;;;2.37;86.17;92375.88;4915000;29;20063;-67
2021/12/02 09:32:23;;;;;;;4.50;1.30;;;;;;;2.53;86.13;92370.69;4915888;29;20051;-67
2021/12/02 09:34:50;;;;;;;3.65;1.67;;;;;;;2.60;85.99;92372.56;4915120;29;20066;-67
2021/12/02 09:37:17;;;;;;;5.43;1.67;;;;;;;3.28;83.64;92368.28;4915662;29;20044;-67
2021/12/02 09:39:44;;;;;;;3.03;1.27;;;;;;;3.56;81.20;92376.06;4915383;29;20044;-65
2021/12/02 09:42:11;;;;;;;3.87;1.10;;;;;;;3.50;81.15;92366.06;4929741;29;20040;-65
2021/12/02 09:44:58;;;;;;;3.85;1.30;;;;;;;3.17;82.93;92366.47;4914792;29;20044;-65
2021/12/02 09:47:30;;;;;;;3.05;1.20;;;;;;;3.28;82.05;92368.28;4897029;29;20060;-65
2021/12/02 09:50:01;;;;;;;3.65;1.20;;;;;;;3.45;82.00;92367.28;4896081;29;20041;-66
2021/12/02 09:52:35;;;;;;;4.05;1.65;;;;;;;3.64;81.42;92356.97;4896499;29;20059;-66
2021/12/02 09:55:09;;;;;;;3.87;1.47;;;;;;;3.29;81.76;92361.69;4896149;29;20044;-65
2021/12/02 09:57:40;;;;;;;3.08;1.25;;;;;;;3.46;81.45;92352.56;4896356;29;20092;-65
2021/12/02 10:00:16;;;;;;;4.22;1.50;;;;;;;3.42;81.62;92349.13;4896039;29;20048;-66
2021/12/02 10:02:52;;;;;;;3.55;1.40;;;;;;;3.48;82.37;92349.44;4896111;29;20152;-66
2021/12/02 10:05:37;;;;;;;4.55;1.63;;;;;;;3.62;81.14;92348.47;4895361;29;20048;-66
2021/12/02 10:08:08;;;;;;;9.93;3.83;;;;;;;3.42;82.65;92349.13;4895385;29;20575;-66
2021/12/02 10:10:40;;;;;;;5.03;1.70;;;;;;;3.27;81.50;92353.22;4896213;29;20059;-66
2021/12/02 10:13:34;;;;;;;4.65;1.70;;;;;;;3.62;80.05;92345.75;4895606;29;20040;-66
2021/12/02 10:16:21;;;;;;;5.25;2.22;;;;;;;4.13;79.55;92346.53;4895087;29;20048;-66
2021/12/02 10:18:58;;;;;;;7.85;2.40;;;;;;;4.23;79.87;92333.97;4895882;29;20074;-66
2021/12/02 10:21:37;;;;;;;3.23;1.30;;;;;;;4.21;78.20;92318.06;4895393;29;20100;-66
2021/12/02 10:24:11;;;;;;;3.35;1.65;;;;;;;4.52;76.46;92329.53;4895488;29;20106;-66
2021/12/02 10:26:44;;;;;;;4.47;1.40;;;;;;;4.24;76.44;92319.19;4895904;29;20052;-66
2021/12/02 10:29:28;;;;;;;4.32;1.40;;;;;;;4.32;76.06;92321.34;4895555;29;20048;-66
2021/12/02 10:32:08;;;;;;;3.17;1.20;;;;;;;4.08;75.81;92320.59;4895251;29;20494;-66
2021/12/02 10:34:56;;;;;;;3.13;1.30;;;;;;;4.06;76.62;92311.34;4895825;29;20043;-66
2021/12/02 10:37:28;;;;;;;3.80;1.20;;;;;;;4.43;75.08;92309.53;4894718;29;20847;-66
2021/12/02 10:40:10;;;;;;;2.90;1.10;;;;;;;4.13;75.31;92305.81;4894810;29;20048;-67
2021/12/02 10:42:42;;;;;;;2.85;1.02;;;;;;;4.25;75.01;92307.91;4894220;29;20057;-66
2021/12/02 10:45:30;;;;;;;7.80;2.00;;;;;;;4.00;75.93;92298.25;4895702;29;25466;-67
2021/12/02 10:47:58;;;;;;;3.13;1.20;;;;;;;3.81;76.66;92298.94;4913475;29;20043;-67
2021/12/02 10:50:27;;;;;;;2.67;1.10;;;;;;;4.28;75.83;92298.16;4913392;29;20412;-67
2021/12/02 10:53:02;;;;;;;3.58;1.35;;;;;;;4.39;75.75;92293.31;4913490;29;20151;-67
2021/12/02 10:55:31;;;;;;;4.63;1.60;;;;;;;4.71;74.46;92291.94;4914297;29;20116;-67
2021/12/02 10:57:59;;;;;;;4.10;1.60;;;;;;;4.31;75.11;92291.91;4913118;29;20824;-67
2021/12/02 11:00:33;;;;;;;7.53;2.40;;;;;;;4.31;75.89;92289.97;4914272;29;20091;-67
2021/12/02 11:03:08;;;;;;;3.47;1.45;;;;;;;4.50;74.76;92290.41;4913638;29;20066;-67
2021/12/02 11:05:44;;;;;;;5.35;1.90;;;;;;;4.79;74.93;92285.97;4914496;29;20040;-67
2021/12/02 11:08:15;;;;;;;4.88;2.03;;;;;;;4.92;75.25;92283.38;4911916;29;20052;-67
2021/12/02 11:10:50;;;;;;;5.10;1.60;;;;;;;4.35;75.23;92277.09;4913940;29;20052;-67
2021/12/02 11:13:23;;;;;;;4.57;1.43;;;;;;;4.62;75.66;92278.91;4913026;29;20622;-67
2021/12/02 11:15:52;;;;;;;3.10;0.90;;;;;;;4.79;73.45;92277.03;4913649;29;20067;-67
2021/12/02 11:18:21;;;;;;;2.72;1.40;;;;;;;4.71;74.10;92281.06;4913703;29;20080;-67
2021/12/02 11:20:57;;;;;;;3.92;2.00;;;;;;;4.55;74.19;92271.69;4913651;29;20054;-67
2021/12/02 11:23:30;;;;;;;4.28;1.70;;;;;;;4.73;73.51;92276.00;4913233;29;20376;-68
2021/12/02 11:26:15;;;;;;;4.13;1.70;;;;;;;4.63;74.73;92272.31;4913339;29;20062;-67
2021/12/02 11:28:43;;;;;;;8.20;3.53;;;;;;;4.61;74.88;92274.69;4913552;29;20047;-67
2021/12/02 11:31:17;;;;;;;4.97;2.10;;;;;;;4.76;73.88;92273.19;4913667;29;20413;-68
2021/12/02 11:33:48;;;;;;;3.67;1.58;;;;;;;4.20;74.60;92273.88;4913897;29;20041;-66
2021/12/02 11:36:25;;;;;;;4.05;1.40;;;;;;;4.35;75.20;92279.03;4913195;29;20455;-66
2021/12/02 11:38:56;;;;;;;3.60;1.50;;;;;;;4.46;74.74;92265.25;4913177;29;20044;-66
2021/12/02 11:41:23;;;;;;;5.88;1.90;;;;;;;4.48;74.90;92271.78;4913745;29;20047;-66
2021/12/02 11:43:50;;;;;;;2.80;0.85;;;;;;;4.44;73.50;92271.09;4913179;29;20044;-66
2021/12/02 11:46:18;;;;;;;2.83;0.82;;;;;;;4.30;73.80;92274.09;4904445;29;20671;-67
2021/12/02 11:48:45;;;;;;;2.70;1.10;;;;;;;4.23;74.21;92264.13;4894676;29;20048;-67
2021/12/02 11:51:18;;;;;;;2.73;1.20;;;;;;;4.21;75.65;92255.63;4895052;29;20051;-67
2021/12/02 11:53:45;;;;;;;3.92;1.42;;;;;;;4.34;74.08;92250.34;4894826;29;20078;-67
2021/12/02 11:56:15;;;;;;;4.13;1.30;;;;;;;4.28;73.73;92250.06;4897035;29;20048;-67
2021/12/02 11:58:42;;;;;;;3.10;1.20;;;;;;;3.66;77.14;92256.94;4898385;29;20048;-66
2021/12/02 12:01:20;;;;;;;3.03;1.67;;;;;;;3.84;77.26;92251.22;4912732;29;20052;-67
2021/12/02 12:03:51;;;;;;;3.40;1.70;;;;;;;4.20;76.64;92249.44;4898510;29;20045;-66
2021/12/02 12:06:27;;;;;;;5.63;1.33;;;;;;;4.09;77.23;92254.28;4897586;29;20655;-66